Nearby METAR Reports

 

LFSI - St. Dizier/Robin, France
Distance from station: SO 26km
Mise à jour: 18/04/2021 06:30
clair
clair
 Wind from N
Vent: N 7 km/h
Température: 6°C
Wind Chill: 4°C
Point de rosée: 0°C
Humidité: 66%
Baromètre: 1021 hPa
Résumé: clair
Visibility: greater than 10 km
2021/04/18 04:30 LFSI 180430Z AUTO 01004KT CAVOK 06/00 Q1021
LFSO - Nancy/Ochey (faf, France
Distance from station: ESE 62km
Mise à jour: 18/04/2021 06:30
couvert
couvert
 Wind from NNE
Vent: NNE 6 km/h
Température: 5°C
Point de rosée: 0°C
Humidité: 70%
Baromètre: 1020 hPa
Clouds: couvert
Visibility: 10 km
Cloud details: nuageux 1341 m
couvert 1890 m
2021/04/18 04:30 LFSO 180430Z AUTO 03003KT 9999 BKN044 OVC062 05/M00 Q1020
LFOK - Chalons/Vatry Fa, France
Distance from station: O 73km
Mise à jour: 18/04/2021 06:30
clair
clair
 Wind from N
Vent: N 9 km/h
Température: 4°C
Wind Chill: 2°C
Point de rosée: 2°C
Humidité: 87%
Baromètre: 1021 hPa
Résumé: clair
Visibility: greater than 10 km
2021/04/18 04:30 LFOK 180430Z AUTO 01005KT CAVOK 04/02 Q1021 NOSIG
 
LFSN - Nancy/Essey, France
Distance from station: E 77km
Mise à jour: 18/04/2021 06:30
couvert
couvert
 Wind from calm
Vent: calme
Température: 6°C
Point de rosée: 0°C
Humidité: 66%
Baromètre: 1020 hPa
Clouds: couvert
Visibility: 10 km
Cloud details: couvert 1372 m
2021/04/18 04:30 LFSN 180430Z AUTO 00000KT 9999 OVC045 06/00 Q1020
LFSG - Epinal/Mirecourt, France
Distance from station: SE 81km
Mise à jour: 18/04/2021 06:30
couvert
couvert
 Wind from N
Vent: N 13 km/h
Température: 5°C
Wind Chill: 2°C
Point de rosée: 0°C
Humidité: 70%
Baromètre: 1020 hPa
Clouds: couvert
Visibility: 10 km
Cloud details: nuageux 1067 m
couvert 1250 m
2021/04/18 04:30 LFSG 180430Z AUTO 01007KT 9999 BKN035 OVC041 05/00 Q1020
LFJL - Metz-Nancy-Lorra, France
Distance from station: ENE 82km
Mise à jour: 18/04/2021 06:30
couvert
couvert
 Wind from N
Vent: N 4 km/h
Température: 6°C
Point de rosée: 0°C
Humidité: 66%
Baromètre: 1020 hPa
Clouds: couvert
Visibility: 10 km
Cloud details: couvert 1402 m
2021/04/18 04:30 LFJL 180430Z AUTO 36002KT 9999 OVC046 06/M00 Q1020 NOSIG
 
LFQA - Reims/Prunay, France
Distance from station: ONO 89km
Mise à jour: 18/04/2021 06:30
clair
clair
 Wind from ONO
Vent: ONO 7 km/h
Température: 5°C
Wind Chill: 3°C
Point de rosée: 3°C
Humidité: 87%
Baromètre: 1022 hPa
Résumé: clair
Visibility: greater than 10 km
2021/04/18 04:30 LFQA 180430Z AUTO 29004KT 270V330 CAVOK 05/03 Q1022
LFQB - Troyes/Barberey, France
Distance from station: OSO 99km
Mise à jour: 18/04/2021 06:30
clair
clair
 Wind from ONO
Vent: ONO 13 km/h
Température: 4°C
Wind Chill: 1°C
Point de rosée: 2°C
Humidité: 87%
Baromètre: 1021 hPa
Résumé: clair
Visibility: greater than 10 km
2021/04/18 04:30 LFQB 180430Z AUTO 30007KT CAVOK 04/02 Q1021